Time;durP1;ratioP1;P1;durP2;ratioP2;P2;SDS_P1;SDS_P2;PMS_P1;PMS_P2;Temp;Humidity;BMP_temperature;BMP_pressure;BME280_temperature;BME280_humidity;BME280_pressure;Samples;Min_cycle;Max_cycle;Signal;HPM_P1;HPM_P2
2019/09/07 00:00:26;;;;;;;7.5;4.7;;;;;;;;;;;;;
2019/09/07 00:02:45;;;;;;;8.3;5;;;;;;;;;;;;;
2019/09/07 00:05:13;;;;;;;7;4.1;;;;;;;;;;;;;
2019/09/07 00:07:36;;;;;;;6.6;4.7;;;;;;;;;;;;;
2019/09/07 00:10:01;;;;;;;6.9;4.1;;;;;;;;;;;;;
2019/09/07 00:12:27;;;;;;;5.2;4.2;;;;;;;;;;;;;
2019/09/07 00:14:52;;;;;;;6.3;4.1;;;;;;;;;;;;;
2019/09/07 00:17:17;;;;;;;7.6;4.3;;;;;;;;;;;;;
2019/09/07 00:19:43;;;;;;;6.8;4.1;;;;;;;;;;;;;
2019/09/07 00:22:06;;;;;;;7;4.4;;;;;;;;;;;;;
2019/09/07 00:24:32;;;;;;;8;4.2;;;;;;;;;;;;;
2019/09/07 00:26:58;;;;;;;7.6;4.3;;;;;;;;;;;;;
2019/09/07 00:29:24;;;;;;;6.4;4.6;;;;;;;;;;;;;
2019/09/07 00:31:51;;;;;;;6.4;4.3;;;;;;;;;;;;;
2019/09/07 00:34:17;;;;;;;6.3;4.7;;;;;;;;;;;;;
2019/09/07 00:36:39;;;;;;;6;4.6;;;;;;;;;;;;;
2019/09/07 00:39:07;;;;;;;8.1;4.9;;;;;;;;;;;;;
2019/09/07 00:41:34;;;;;;;6.8;4.7;;;;;;;;;;;;;
2019/09/07 00:43:57;;;;;;;6.6;4.4;;;;;;;;;;;;;
2019/09/07 00:46:24;;;;;;;8.2;4.5;;;;;;;;;;;;;
2019/09/07 00:48:50;;;;;;;7.4;4.7;;;;;;;;;;;;;
2019/09/07 00:51:15;;;;;;;7.7;5.1;;;;;;;;;;;;;
2019/09/07 00:53:41;;;;;;;6.8;5.4;;;;;;;;;;;;;
2019/09/07 00:56:06;;;;;;;7.8;5.8;;;;;;;;;;;;;
2019/09/07 00:58:32;;;;;;;7.9;4.9;;;;;;;;;;;;;
2019/09/07 01:00:59;;;;;;;6.5;5.3;;;;;;;;;;;;;
2019/09/07 01:03:24;;;;;;;8.5;5.4;;;;;;;;;;;;;
2019/09/07 01:05:51;;;;;;;5.9;5.3;;;;;;;;;;;;;
2019/09/07 01:08:17;;;;;;;9.6;5.7;;;;;;;;;;;;;
2019/09/07 01:10:50;;;;;;;8.8;5.2;;;;;;;;;;;;;
2019/09/07 01:13:06;;;;;;;7.8;5.3;;;;;;;;;;;;;
2019/09/07 01:15:32;;;;;;;7.2;5.7;;;;;;;;;;;;;
2019/09/07 01:17:57;;;;;;;7.7;5.2;;;;;;;;;;;;;
2019/09/07 01:20:25;;;;;;;9.5;5.4;;;;;;;;;;;;;
2019/09/07 01:22:49;;;;;;;7.2;5.1;;;;;;;;;;;;;
2019/09/07 01:25:15;;;;;;;6.3;5.5;;;;;;;;;;;;;
2019/09/07 01:27:40;;;;;;;6.4;5.2;;;;;;;;;;;;;
2019/09/07 01:30:10;;;;;;;7.9;5.9;;;;;;;;;;;;;
2019/09/07 01:32:32;;;;;;;8.4;5.4;;;;;;;;;;;;;
2019/09/07 01:34:58;;;;;;;7.2;5.6;;;;;;;;;;;;;
2019/09/07 01:37:21;;;;;;;8.1;5.2;;;;;;;;;;;;;
2019/09/07 01:39:49;;;;;;;8.3;5.4;;;;;;;;;;;;;
2019/09/07 01:42:14;;;;;;;6.1;4.7;;;;;;;;;;;;;
2019/09/07 01:44:38;;;;;;;8.6;5.3;;;;;;;;;;;;;
2019/09/07 01:47:08;;;;;;;7.8;5.3;;;;;;;;;;;;;
2019/09/07 01:49:29;;;;;;;7.8;4.8;;;;;;;;;;;;;
2019/09/07 01:51:57;;;;;;;5.3;4.8;;;;;;;;;;;;;
2019/09/07 01:54:19;;;;;;;8;5.1;;;;;;;;;;;;;
2019/09/07 01:56:46;;;;;;;6.1;5;;;;;;;;;;;;;
2019/09/07 01:59:10;;;;;;;6.7;5.1;;;;;;;;;;;;;
2019/09/07 02:01:34;;;;;;;6;4.6;;;;;;;;;;;;;
2019/09/07 02:03:59;;;;;;;5.7;4.7;;;;;;;;;;;;;
2019/09/07 02:06:29;;;;;;;5.4;4.9;;;;;;;;;;;;;
2019/09/07 02:08:52;;;;;;;8.1;6.2;;;;;;;;;;;;;
2019/09/07 02:11:17;;;;;;;8;6.8;;;;;;;;;;;;;
2019/09/07 02:13:42;;;;;;;8.5;7.6;;;;;;;;;;;;;
2019/09/07 02:16:08;;;;;;;10;7.9;;;;;;;;;;;;;
2019/09/07 02:18:34;;;;;;;13;9.4;;;;;;;;;;;;;
2019/09/07 02:21:04;;;;;;;11.5;9.5;;;;;;;;;;;;;
2019/09/07 02:23:24;;;;;;;14.8;9.6;;;;;;;;;;;;;
2019/09/07 02:25:50;;;;;;;13.7;9.8;;;;;;;;;;;;;
2019/09/07 02:28:14;;;;;;;14.1;10.9;;;;;;;;;;;;;
2019/09/07 02:30:41;;;;;;;13.4;10.5;;;;;;;;;;;;;
2019/09/07 02:33:11;;;;;;;13;10.5;;;;;;;;;;;;;
2019/09/07 02:35:31;;;;;;;16.6;11;;;;;;;;;;;;;
2019/09/07 02:37:55;;;;;;;15.6;10.7;;;;;;;;;;;;;
2019/09/07 02:40:22;;;;;;;15.4;11.8;;;;;;;;;;;;;
2019/09/07 02:42:50;;;;;;;14.3;11.6;;;;;;;;;;;;;
2019/09/07 02:45:13;;;;;;;14.6;11.4;;;;;;;;;;;;;
2019/09/07 02:47:36;;;;;;;16.3;11.2;;;;;;;;;;;;;
2019/09/07 02:50:02;;;;;;;15.2;10.8;;;;;;;;;;;;;
2019/09/07 02:52:36;;;;;;;15.2;11.2;;;;;;;;;;;;;
2019/09/07 02:54:53;;;;;;;12.4;10.4;;;;;;;;;;;;;
2019/09/07 02:57:18;;;;;;;14.5;10.9;;;;;;;;;;;;;
2019/09/07 02:59:46;;;;;;;15.6;12.1;;;;;;;;;;;;;
2019/09/07 03:02:11;;;;;;;17.2;12.3;;;;;;;;;;;;;
2019/09/07 03:04:34;;;;;;;16.1;12.5;;;;;;;;;;;;;
2019/09/07 03:07:00;;;;;;;16.5;11.9;;;;;;;;;;;;;
2019/09/07 03:09:24;;;;;;;16.9;12.7;;;;;;;;;;;;;
2019/09/07 03:11:53;;;;;;;14.4;11.9;;;;;;;;;;;;;
2019/09/07 03:14:16;;;;;;;15.5;11.5;;;;;;;;;;;;;
2019/09/07 03:16:40;;;;;;;15.5;12.5;;;;;;;;;;;;;
2019/09/07 03:19:09;;;;;;;13.3;11.5;;;;;;;;;;;;;
2019/09/07 03:21:32;;;;;;;16.6;11.7;;;;;;;;;;;;;
2019/09/07 03:23:57;;;;;;;15.5;12;;;;;;;;;;;;;
2019/09/07 03:26:21;;;;;;;17.6;12.2;;;;;;;;;;;;;
2019/09/07 03:28:49;;;;;;;15.1;12;;;;;;;;;;;;;
2019/09/07 03:31:13;;;;;;;16.5;12.2;;;;;;;;;;;;;
2019/09/07 03:33:38;;;;;;;16.3;12.6;;;;;;;;;;;;;
2019/09/07 03:36:03;;;;;;;19;13.6;;;;;;;;;;;;;
2019/09/07 03:38:33;;;;;;;17;12.9;;;;;;;;;;;;;
2019/09/07 03:40:52;;;;;;;17;13.2;;;;;;;;;;;;;
2019/09/07 03:43:21;;;;;;;16.6;12.5;;;;;;;;;;;;;
2019/09/07 03:45:48;;;;;;;18;12.5;;;;;;;;;;;;;
2019/09/07 03:48:12;;;;;;;13.5;10.6;;;;;;;;;;;;;
2019/09/07 03:50:36;;;;;;;16.1;11.7;;;;;;;;;;;;;
2019/09/07 03:53:02;;;;;;;16;11;;;;;;;;;;;;;
2019/09/07 03:55:32;;;;;;;13.7;11;;;;;;;;;;;;;
2019/09/07 03:57:53;;;;;;;13.4;10.3;;;;;;;;;;;;;
2019/09/07 04:00:21;;;;;;;12.7;10.8;;;;;;;;;;;;;
2019/09/07 04:02:51;;;;;;;16.1;10.6;;;;;;;12.86;88.22656;940.4732;;;;
2019/09/07 04:05:33;;;;;;;14.8;10.7;;;;;;;12.55;88.79492;940.4001;;;;
2019/09/07 04:08:00;;;;;;;13.9;10.7;;;;;;;12.71;88.96582;940.4827;;;;
2019/09/07 04:10:33;;;;;;;16.4;11.6;;;;;;;12.8;88.12305;940.4942;;;;
2019/09/07 04:13:05;;;;;;;15.8;11.7;;;;;;;12.89;87.91406;940.4894;;;;
2019/09/07 04:15:38;;;;;;;13.4;10.9;;;;;;;12.87;87.67871;940.4756;;;;
2019/09/07 04:18:08;;;;;;;15;11.1;;;;;;;12.86;87.56055;940.4885;;;;
2019/09/07 04:20:32;;;;;;;17.5;11.6;;;;;;;12.79;87.63965;940.5054;;;;
2019/09/07 04:23:06;;;;;;;16.8;11.8;;;;;;;12.87;87.28711;940.5125;;;;
2019/09/07 04:25:36;;;;;;;16.6;11.2;;;;;;;12.88;87.37109;940.514;;;;
2019/09/07 04:28:06;;;;;;;15.3;11.4;;;;;;;12.94;86.98145;940.5119;;;;
2019/09/07 04:30:33;;;;;;;18.5;11.8;;;;;;;13;87.0752;940.4994;;;;
2019/09/07 04:33:02;;;;;;;19.6;12.2;;;;;;;12.76;87.97852;940.4781;;;;
2019/09/07 04:35:28;;;;;;;17.4;11.8;;;;;;;12.88;87.4375;940.4197;;;;
2019/09/07 04:37:51;;;;;;;14.5;11.3;;;;;;;12.88;87.1416;940.4661;;;;
2019/09/07 04:40:23;;;;;;;14.7;11.2;;;;;;;12.9;87.22559;940.4518;;;;
2019/09/07 04:42:57;;;;;;;15.3;11.2;;;;;;;12.84;87.43066;940.4036;;;;
2019/09/07 04:45:18;;;;;;;19.7;12.4;;;;;;;12.8;88.1123;940.4832;;;;
2019/09/07 04:47:44;;;;;;;17.3;11;;;;;;;12.72;87.91211;940.4484;;;;
2019/09/07 04:50:14;;;;;;;19.8;11;;;;;;;12.73;87.59277;940.4531;;;;
2019/09/07 04:52:45;;;;;;;14.9;11.1;;;;;;;12.84;87.55664;940.4651;;;;
2019/09/07 04:55:10;;;;;;;17.7;11.1;;;;;;;12.95;86.83398;940.4895;;;;
2019/09/07 04:57:41;;;;;;;16;11.4;;;;;;;12.77;87.49805;940.4702;;;;
2019/09/07 05:00:08;;;;;;;13.7;10.6;;;;;;;12.85;86.94043;940.5131;;;;
2019/09/07 05:02:37;;;;;;;19.6;14.1;;;;;;;12.8;87.38867;940.5606;;;;
2019/09/07 05:05:05;;;;;;;20.6;14.1;;;;;;;12.81;87.45996;940.4983;;;;
2019/09/07 05:07:38;;;;;;;17.7;12;;;;;;;12.9;87.22559;940.5684;;;;
2019/09/07 05:10:07;;;;;;;15.9;10.5;;;;;;;12.84;86.9502;940.5978;;;;
2019/09/07 05:12:41;;;;;;;14.3;10.8;;;;;;;12.79;87.21484;940.5685;;;;
2019/09/07 05:15:15;;;;;;;16.9;11.4;;;;;;;12.77;87.25684;940.5349;;;;
2019/09/07 05:17:49;;;;;;;19.8;12.2;;;;;;;12.74;88.25977;940.5675;;;;
2019/09/07 05:20:17;;;;;;;16.8;10.5;;;;;;;12.45;88.47656;940.5648;;;;
2019/09/07 05:22:40;;;;;;;15.2;10.7;;;;;;;12.72;87.68262;940.5458;;;;
2019/09/07 05:27:37;;;;;;;17.2;10.4;;;;;;;12.91;85.75781;940.6053;;;;
2019/09/07 05:30:09;;;;;;;16.7;10;;;;;;;12.93;86.19727;940.5806;;;;
2019/09/07 05:32:35;;;;;;;14.6;9.9;;;;;;;12.79;86.7793;940.6628;;;;
2019/09/07 05:35:07;;;;;;;18;10.2;;;;;;;12.77;86.85547;940.6747;;;;
2019/09/07 05:37:36;;;;;;;15.4;9.9;;;;;;;12.72;87.24609;940.6394;;;;
2019/09/07 05:42:35;;;;;;;14.4;9.4;;;;;;;12.66;87.44238;940.6981;;;;
2019/09/07 05:44:59;;;;;;;13.5;9;;;;;;;12.69;87.29883;940.6824;;;;
2019/09/07 05:47:30;;;;;;;12.9;9.2;;;;;;;12.77;87.39453;940.7083;;;;
2019/09/07 05:49:56;;;;;;;13.2;9.3;;;;;;;12.73;87.04395;940.7625;;;;
2019/09/07 05:52:26;;;;;;;13.7;8.5;;;;;;;12.77;86.56836;940.7562;;;;
2019/09/07 05:54:57;;;;;;;14.4;8.5;;;;;;;12.83;85.95996;940.7033;;;;
2019/09/07 05:57:22;;;;;;;13.4;8.8;;;;;;;13.01;86.03027;940.7328;;;;
2019/09/07 05:59:50;;;;;;;16.4;9;;;;;;;12.92;86.08105;940.7787;;;;
2019/09/07 06:02:17;;;;;;;14.1;8.3;;;;;;;12.92;86.35645;940.8003;;;;
2019/09/07 06:04:44;;;;;;;12.7;9.1;;;;;;;12.54;87.09766;940.7866;;;;
2019/09/07 06:07:12;;;;;;;15;8.6;;;;;;;12.82;87.15332;940.7808;;;;
2019/09/07 06:09:42;;;;;;;14.9;9;;;;;;;12.78;87.40625;940.7731;;;;
2019/09/07 06:12:05;;;;;;;12.4;8.9;;;;;;;12.94;86.45215;940.8181;;;;
2019/09/07 06:14:39;;;;;;;15.4;9.8;;;;;;;12.96;86.30566;940.7358;;;;
2019/09/07 06:17:05;;;;;;;15;9.5;;;;;;;13.02;86.66504;940.7316;;;;
2019/09/07 06:19:36;;;;;;;14;9.7;;;;;;;13.02;86.50391;940.7675;;;;
2019/09/07 06:22:02;;;;;;;21.8;13.4;;;;;;;12.88;86.84277;940.7619;;;;
2019/09/07 06:24:32;;;;;;;16;9.8;;;;;;;12.79;87.2627;940.8219;;;;
2019/09/07 06:27:05;;;;;;;14.7;11;;;;;;;12.68;87.63867;940.8572;;;;
2019/09/07 06:29:36;;;;;;;14.7;9.6;;;;;;;12.58;87.96484;940.8212;;;;
2019/09/07 06:32:09;;;;;;;15.1;9.1;;;;;;;12.57;88.18066;940.7972;;;;
2019/09/07 06:34:35;;;;;;;15.1;9.4;;;;;;;12.57;87.75684;940.8004;;;;
2019/09/07 06:37:04;;;;;;;14.2;9.2;;;;;;;12.72;87.29199;940.7847;;;;
2019/09/07 06:39:30;;;;;;;16;9.6;;;;;;;12.74;87.21777;940.824;;;;
2019/09/07 06:42:01;;;;;;;15.2;9.5;;;;;;;12.72;87.71875;940.8287;;;;
2019/09/07 06:44:32;;;;;;;15.6;10.3;;;;;;;12.45;88.98145;940.8795;;;;
2019/09/07 06:46:59;;;;;;;16.3;10.5;;;;;;;12.49;88.89844;940.8918;;;;
2019/09/07 06:49:27;;;;;;;14.3;9.1;;;;;;;12.48;88.74609;940.8686;;;;
2019/09/07 06:51:49;;;;;;;14.4;9.1;;;;;;;12.81;88.0332;940.8475;;;;
2019/09/07 06:54:36;;;;;;;12.1;9;;;;;;;12.87;86.7832;940.9056;;;;
2019/09/07 06:57:07;;;;;;;15.3;10.2;;;;;;;12.84;87.78613;940.9191;;;;
2019/09/07 06:59:32;;;;;;;12.5;9.2;;;;;;;12.94;86.66992;940.9475;;;;
2019/09/07 07:02:00;;;;;;;13.3;9.3;;;;;;;12.71;87.65723;940.9445;;;;
2019/09/07 07:04:28;;;;;;;14.5;8.4;;;;;;;12.67;87.52441;940.9595;;;;
2019/09/07 07:07:00;;;;;;;11.1;7.4;;;;;;;12.92;87.68848;941.0129;;;;
2019/09/07 07:09:31;;;;;;;10.5;6.8;;;;;;;12.95;86.52441;941.0316;;;;
2019/09/07 07:11:57;;;;;;;10.2;5.9;;;;;;;12.91;85.80371;941.1136;;;;
2019/09/07 07:14:26;;;;;;;10.6;5.9;;;;;;;13.07;85.84668;941.1179;;;;
2019/09/07 07:16:48;;;;;;;11.2;6.8;;;;;;;13.17;86.24707;941.1911;;;;
2019/09/07 07:19:16;;;;;;;9.8;6.1;;;;;;;13.21;86.13965;941.1534;;;;
2019/09/07 07:21:41;;;;;;;8.4;5.9;;;;;;;13.39;85.27734;941.1749;;;;
2019/09/07 07:24:07;;;;;;;49;27.6;;;;;;;13.36;85.375;941.1277;;;;
2019/09/07 07:26:32;;;;;;;14.5;8.8;;;;;;;13.23;85.76465;941.1951;;;;
2019/09/07 07:29:05;;;;;;;7.9;5.4;;;;;;;13.4;85.2334;941.2109;;;;
2019/09/07 07:31:30;;;;;;;7;4.8;;;;;;;13.58;82.88867;941.1733;;;;
2019/09/07 07:33:57;;;;;;;7.2;4.9;;;;;;;13.57;83.15137;941.1637;;;;
2019/09/07 07:36:25;;;;;;;8.8;5.3;;;;;;;13.47;85.00586;941.265;;;;
2019/09/07 07:38:55;;;;;;;9.9;5.4;;;;;;;13.53;84.31738;941.2708;;;;
2019/09/07 07:41:25;;;;;;;7.7;5.5;;;;;;;13.57;84.04785;941.2277;;;;
2019/09/07 07:43:51;;;;;;;10.7;5.4;;;;;;;13.47;84.05176;941.2722;;;;
2019/09/07 07:46:16;;;;;;;8.6;5.5;;;;;;;13.59;83.89063;941.2734;;;;
2019/09/07 07:48:56;;;;;;;9.3;5;;;;;;;13.6;84.39844;941.267;;;;
2019/09/07 07:51:27;;;;;;;9.9;5.7;;;;;;;13.68;84.19727;941.2562;;;;
2019/09/07 07:53:58;;;;;;;9.8;5.6;;;;;;;13.77;83.62793;941.2709;;;;
2019/09/07 07:56:24;;;;;;;10.2;6.8;;;;;;;13.81;83.21094;941.274;;;;
2019/09/07 07:58:59;;;;;;;12.6;8.6;;;;;;;13.9;83.73242;941.2673;;;;
2019/09/07 08:01:29;;;;;;;32.7;19.5;;;;;;;13.82;83.10742;941.2985;;;;
2019/09/07 08:04:04;;;;;;;11.3;6.8;;;;;;;13.65;83.70703;941.3714;;;;
2019/09/07 08:06:37;;;;;;;9.7;6.2;;;;;;;13.77;83.72949;941.3197;;;;
2019/09/07 08:09:07;;;;;;;10.8;6.1;;;;;;;13.88;84.24707;941.3563;;;;
2019/09/07 08:11:39;;;;;;;9.1;5.9;;;;;;;13.83;83.01855;941.2792;;;;
2019/09/07 08:14:16;;;;;;;8.9;6.1;;;;;;;13.92;83.1377;941.3699;;;;
2019/09/07 08:16:52;;;;;;;9;5.5;;;;;;;14.1;82.73438;941.3079;;;;
2019/09/07 08:19:30;;;;;;;6.6;5.1;;;;;;;14.12;81.38184;941.3103;;;;
2019/09/07 08:21:56;;;;;;;7.9;5;;;;;;;14.25;82.03809;941.4059;;;;
2019/09/07 08:24:27;;;;;;;10;4.9;;;;;;;14.19;82.44141;941.4129;;;;
2019/09/07 08:26:59;;;;;;;5.7;4.4;;;;;;;14.14;81.31445;941.3864;;;;
2019/09/07 08:29:22;;;;;;;7.8;4.4;;;;;;;14.25;81.43945;941.3867;;;;
2019/09/07 08:31:51;;;;;;;9.8;5;;;;;;;14.23;81.60938;941.3979;;;;
2019/09/07 08:34:15;;;;;;;8.7;4.9;;;;;;;14.36;81.63281;941.4388;;;;
2019/09/07 08:36:39;;;;;;;7.8;4.5;;;;;;;14.45;82.16797;941.3794;;;;
2019/09/07 08:39:11;;;;;;;6.2;4.3;;;;;;;14.5;80.86426;941.4089;;;;
2019/09/07 08:41:46;;;;;;;8.5;4.3;;;;;;;14.55;81.16113;941.3384;;;;
2019/09/07 08:44:18;;;;;;;9;4.4;;;;;;;14.59;81.44434;941.3608;;;;
2019/09/07 08:46:50;;;;;;;7.5;4.3;;;;;;;14.7;80.99219;941.405;;;;
2019/09/07 08:49:15;;;;;;;7.7;3.6;;;;;;;14.72;77.63086;941.4155;;;;
2019/09/07 08:51:45;;;;;;;7.1;4.3;;;;;;;14.64;79.45898;941.3963;;;;
2019/09/07 08:54:09;;;;;;;7.8;4;;;;;;;14.6;77.86328;941.4008;;;;
2019/09/07 08:56:38;;;;;;;7.8;4.1;;;;;;;14.78;79.69238;941.3961;;;;
2019/09/07 08:59:08;;;;;;;11.3;4.7;;;;;;;14.57;79.57227;941.4169;;;;
2019/09/07 09:01:38;;;;;;;7.5;4.7;;;;;;;14.53;81.79004;941.3817;;;;
2019/09/07 09:04:07;;;;;;;17.2;10.2;;;;;;;14.67;81.72266;941.3714;;;;
2019/09/07 09:06:30;;;;;;;9.9;6.7;;;;;;;14.75;81.39355;941.3392;;;;
2019/09/07 09:08:54;;;;;;;10.7;6.8;;;;;;;14.75;81.03711;941.3505;;;;
2019/09/07 09:11:19;;;;;;;8.4;6.2;;;;;;;14.75;81.84375;941.3833;;;;
2019/09/07 09:13:45;;;;;;;7.1;4.9;;;;;;;14.43;81.41602;941.3806;;;;
2019/09/07 09:16:11;;;;;;;7.8;4.9;;;;;;;14.45;82.15625;941.3633;;;;
2019/09/07 09:18:45;;;;;;;8.5;4.9;;;;;;;14.46;81.98535;941.3649;;;;
2019/09/07 09:21:09;;;;;;;9.5;5.1;;;;;;;14.52;82.24902;941.3223;;;;
2019/09/07 09:23:39;;;;;;;7;4.5;;;;;;;14.4;80.95996;941.3627;;;;
2019/09/07 09:26:06;;;;;;;7.6;4.5;;;;;;;14.49;82.23242;941.2992;;;;
2019/09/07 09:28:30;;;;;;;7;4.4;;;;;;;14.56;81.04785;941.2894;;;;
2019/09/07 09:31:00;;;;;;;6.6;4;;;;;;;14.41;80.74219;941.2489;;;;
2019/09/07 09:33:35;;;;;;;7.1;4.2;;;;;;;14.27;81.77832;941.2922;;;;
2019/09/07 09:38:32;;;;;;;7.2;4.6;;;;;;;13.85;82.84766;941.2497;;;;
2019/09/07 09:41:01;;;;;;;6.3;4.4;;;;;;;13.92;83;941.2482;;;;
2019/09/07 09:43:31;;;;;;;6.4;4;;;;;;;13.99;82.27832;941.2531;;;;
2019/09/07 09:45:56;;;;;;;6.6;4.1;;;;;;;14.16;82.83691;941.2598;;;;
2019/09/07 09:48:21;;;;;;;6.4;4.2;;;;;;;13.84;82.77734;941.2561;;;;
2019/09/07 09:53:17;;;;;;;10.5;4.9;;;;;;;14.19;83.55762;941.1766;;;;
2019/09/07 09:55:51;;;;;;;6.5;4.8;;;;;;;14.03;83.18164;941.2189;;;;
2019/09/07 09:58:21;;;;;;;7;4.8;;;;;;;14.03;83.2832;941.2037;;;;
2019/09/07 10:00:45;;;;;;;6.8;4;;;;;;;13.67;84.16113;941.1642;;;;
2019/09/07 10:03:25;;;;;;;7.1;4.9;;;;;;;13.6;85.45605;941.1174;;;;
2019/09/07 10:05:52;;;;;;;7.1;4.3;;;;;;;13.49;85.46875;941.1955;;;;
2019/09/07 10:08:22;;;;;;;7.3;4.6;;;;;;;13.74;86.53125;941.1139;;;;
2019/09/07 10:10:53;;;;;;;15.7;11.7;;;;;;;14.12;85.13477;941.1638;;;;
2019/09/07 10:13:16;;;;;;;7.1;3.9;;;;;;;13.95;82.26855;941.0969;;;;
2019/09/07 10:15:44;;;;;;;8;4.6;;;;;;;14.29;83.98047;941.0664;;;;
2019/09/07 10:18:15;;;;;;;7.1;4.8;;;;;;;14.23;79.82227;941.0503;;;;
2019/09/07 10:20:39;;;;;;;10;8.4;;;;;;;14.49;83.33887;941.1381;;;;
2019/09/07 10:23:11;;;;;;;9.9;6.1;;;;;;;14.72;80.99512;941.0884;;;;
2019/09/07 10:25:38;;;;;;;8.5;5.3;;;;;;;14.91;79.17578;941.1035;;;;
2019/09/07 10:28:06;;;;;;;10;5.6;;;;;;;15.04;81.75977;941.0712;;;;
2019/09/07 10:30:29;;;;;;;6.5;4.9;;;;;;;15.04;78.75977;941.1339;;;;
2019/09/07 10:32:57;;;;;;;6.6;4.7;;;;;;;15.08;77.42773;941.1184;;;;
2019/09/07 10:35:27;;;;;;;7.7;5.2;;;;;;;15.09;81.45605;941.1248;;;;
2019/09/07 10:38:47;;;;;;;9.9;5.8;;;;;;;15.12;82.53613;941.1705;;;;
2019/09/07 10:41:19;;;;;;;5.7;4.4;;;;;;;15.27;78.90625;941.147;;;;
2019/09/07 10:46:27;;;;;;;7;4.9;;;;;;;15.18;80.45801;941.1437;;;;
2019/09/07 10:49:00;;;;;;;7.6;5.4;;;;;;;15.18;80.43457;941.1663;;;;
2019/09/07 10:51:30;;;;;;;7.9;5.2;;;;;;;15.28;80.81055;941.1036;;;;
2019/09/07 10:54:29;;;;;;;7.8;5.4;;;;;;;15.25;80.8291;941.1855;;;;
2019/09/07 10:56:56;;;;;;;6;4.6;;;;;;;15.16;79.24414;941.1519;;;;
2019/09/07 10:59:32;;;;;;;6.3;5;;;;;;;15.08;79.49316;941.1578;;;;
2019/09/07 11:02:04;;;;;;;7.4;4.2;;;;;;;15.03;77.24707;941.1917;;;;
2019/09/07 11:04:25;;;;;;;7.4;4.2;;;;;;;14.97;78.87402;941.1747;;;;
2019/09/07 11:06:51;;;;;;;7.2;4.4;;;;;;;14.86;78.3125;941.0739;;;;
2019/09/07 11:09:37;;;;;;;6.6;4;;;;;;;14.74;78.52148;941.1195;;;;
2019/09/07 11:11:59;;;;;;;6.7;3.8;;;;;;;14.57;78.07715;941.2029;;;;
2019/09/07 11:14:31;;;;;;;5.5;3.8;;;;;;;14.47;79.34668;941.1814;;;;
2019/09/07 11:17:04;;;;;;;6.2;4.2;;;;;;;14.57;79.52832;941.2189;;;;
2019/09/07 11:19:26;;;;;;;7.4;4.2;;;;;;;14.49;79.50195;941.1909;;;;
2019/09/07 11:21:54;;;;;;;8.3;4.4;;;;;;;14.58;80.00195;941.1837;;;;
2019/09/07 11:24:29;;;;;;;7.5;3.8;;;;;;;14.64;79.22949;941.1671;;;;
2019/09/07 11:26:55;;;;;;;6.6;3.7;;;;;;;14.43;80.13672;941.2039;;;;
2019/09/07 11:29:45;;;;;;;6.4;3.6;;;;;;;14.59;78.41309;941.2325;;;;
2019/09/07 11:32:04;;;;;;;6.3;3.8;;;;;;;14.56;81.69336;941.2527;;;;
2019/09/07 11:34:42;;;;;;;5.6;3.7;;;;;;;14.32;81.16309;941.2434;;;;
2019/09/07 11:37:29;;;;;;;7.8;4;;;;;;;14.45;80.00195;941.2159;;;;
2019/09/07 11:39:50;;;;;;;5.5;3.5;;;;;;;14.49;80.02051;941.1974;;;;
2019/09/07 11:42:45;;;;;;;6.3;3.6;;;;;;;14.51;81.10645;941.183;;;;
2019/09/07 11:45:15;;;;;;;4.8;3.5;;;;;;;14.45;78.9541;941.1654;;;;
2019/09/07 11:47:44;;;;;;;5.5;3.6;;;;;;;14.57;80.38086;941.2446;;;;
2019/09/07 11:50:09;;;;;;;5.3;3.7;;;;;;;14.65;80.13086;941.1934;;;;
2019/09/07 11:55:20;;;;;;;5.7;3.3;;;;;;;14.63;79.2168;941.2336;;;;
2019/09/07 11:57:52;;;;;;;5.3;3;;;;;;;14.64;80.625;941.2633;;;;
2019/09/07 12:00:23;;;;;;;4.9;2.4;;;;;;;14.5;78.81348;941.2615;;;;
2019/09/07 12:02:47;;;;;;;6.7;2.7;;;;;;;14.18;79.76855;941.2062;;;;
2019/09/07 12:05:37;;;;;;;5.6;2.9;;;;;;;14.33;81.75293;941.1873;;;;
2019/09/07 12:07:48;;;;;;;4.7;3;;;;;;;14.16;80.51172;941.2319;;;;
2019/09/07 12:10:21;;;;;;;5.2;3.9;;;;;;;13.78;83.61816;941.2124;;;;
2019/09/07 12:12:46;;;;;;;4.9;3.9;;;;;;;13.81;83.73633;941.2141;;;;
2019/09/07 12:15:11;;;;;;;5.8;3.6;;;;;;;13.93;83.02441;941.1986;;;;
2019/09/07 12:17:48;;;;;;;6.3;4;;;;;;;13.86;83.34473;941.2289;;;;
2019/09/07 12:20:17;;;;;;;7;3.9;;;;;;;14.01;83.41992;941.1962;;;;
2019/09/07 12:22:40;;;;;;;5.8;3.8;;;;;;;13.69;84.61328;941.1906;;;;
2019/09/07 12:25:15;;;;;;;6.6;4.2;;;;;;;13.44;86.19629;941.2449;;;;
2019/09/07 12:27:44;;;;;;;5.6;3.5;;;;;;;13.61;85.0918;941.1926;;;;
2019/09/07 12:30:10;;;;;;;4.4;2.8;;;;;;;13.72;83.64063;941.2147;;;;
2019/09/07 12:32:51;;;;;;;6;3;;;;;;;13.86;84.36816;941.1912;;;;
2019/09/07 12:35:42;;;;;;;5.2;2.9;;;;;;;13.7;84.87891;941.197;;;;
2019/09/07 12:38:07;;;;;;;6.1;3.2;;;;;;;14;83.54492;941.1707;;;;
2019/09/07 12:40:37;;;;;;;4.6;2.8;;;;;;;13.81;82.77344;941.1813;;;;
2019/09/07 12:43:45;;;;;;;3.6;2.6;;;;;;;13.88;83.37305;941.2009;;;;
2019/09/07 12:46:05;;;;;;;5.6;2.9;;;;;;;14.08;83.21289;941.2198;;;;
2019/09/07 12:48:31;;;;;;;6.2;2.8;;;;;;;14.19;82.74023;941.1742;;;;
2019/09/07 12:51:03;;;;;;;3.6;2.4;;;;;;;14.02;81.09668;941.1453;;;;
2019/09/07 12:53:36;;;;;;;3.3;2.4;;;;;;;13.9;80.68164;941.1641;;;;
2019/09/07 12:56:09;;;;;;;5.2;2.6;;;;;;;13.9;81.625;941.1746;;;;
2019/09/07 12:58:49;;;;;;;4.5;2.7;;;;;;;13.75;81.36816;941.0931;;;;
2019/09/07 13:01:14;;;;;;;4.7;2.5;;;;;;;13.86;80.42383;941.0511;;;;
2019/09/07 13:03:40;;;;;;;4.7;2.7;;;;;;;13.79;82.33105;941.0756;;;;
2019/09/07 13:06:05;;;;;;;5.1;2.3;;;;;;;13.77;80.13086;941.0867;;;;
2019/09/07 13:08:39;;;;;;;5.7;2.7;;;;;;;13.85;78.58105;941.0984;;;;
2019/09/07 13:11:07;;;;;;;5.7;2.5;;;;;;;13.95;78.47266;941.0433;;;;
2019/09/07 13:13:29;;;;;;;4.8;2.2;;;;;;;14.27;77.05566;941.0648;;;;
2019/09/07 13:15:59;;;;;;;4.9;2.5;;;;;;;14.4;78.20801;941.0719;;;;
2019/09/07 13:18:45;;;;;;;5.2;2.7;;;;;;;14.6;76.88184;941.106;;;;
2019/09/07 13:21:08;;;;;;;4.3;2.2;;;;;;;14.81;75.8252;941.0481;;;;
2019/09/07 13:23:36;;;;;;;6.4;2.4;;;;;;;14.98;76.42969;941.072;;;;
2019/09/07 13:26:17;;;;;;;4.6;2.1;;;;;;;14.89;73.95801;941.061;;;;
2019/09/07 13:28:47;;;;;;;5.5;1.9;;;;;;;14.85;73.68652;941.0403;;;;
2019/09/07 13:31:11;;;;;;;4.4;2.2;;;;;;;15.05;75.41602;941.0913;;;;
2019/09/07 13:33:44;;;;;;;6;2.6;;;;;;;15.21;76.96777;941.0731;;;;
2019/09/07 13:36:06;;;;;;;4.2;2.4;;;;;;;15.39;76.13281;941.0814;;;;
2019/09/07 13:38:31;;;;;;;7.2;2.5;;;;;;;15.41;76.50586;941.0436;;;;
2019/09/07 13:41:01;;;;;;;4.5;2.2;;;;;;;15.28;75.9873;940.9207;;;;
2019/09/07 13:43:30;;;;;;;3.7;2;;;;;;;15.01;76.18066;940.861;;;;
2019/09/07 13:46:45;;;;;;;5;2.5;;;;;;;14.74;77.50684;940.9553;;;;
2019/09/07 13:49:09;;;;;;;7.2;3.2;;;;;;;14.37;81.25391;940.8364;;;;
2019/09/07 13:51:57;;;;;;;3.8;2.3;;;;;;;14.58;80.44043;940.8262;;;;
2019/09/07 13:54:20;;;;;;;4.9;2.4;;;;;;;14.42;80.14551;940.7533;;;;
2019/09/07 13:56:47;;;;;;;5.5;2.7;;;;;;;14.79;81.45801;940.6256;;;;
2019/09/07 13:59:21;;;;;;;5.4;2.7;;;;;;;15.31;78.20801;940.6589;;;;
2019/09/07 14:01:45;;;;;;;4.9;2.5;;;;;;;15.68;78.74805;940.6691;;;;
2019/09/07 14:04:11;;;;;;;3.9;1.9;;;;;;;15.96;78.02441;940.7405;;;;
2019/09/07 14:06:52;;;;;;;3.3;1.9;;;;;;;16.22;75.16602;940.6867;;;;
2019/09/07 14:09:23;;;;;;;3.6;2.1;;;;;;;16.14;74.55176;940.6389;;;;
2019/09/07 14:11:49;;;;;;;4.5;2.2;;;;;;;16.36;73.23535;940.6936;;;;
2019/09/07 14:14:32;;;;;;;3.5;1.6;;;;;;;16.41;72.48047;940.7028;;;;
2019/09/07 14:17:05;;;;;;;3.3;1.8;;;;;;;16.68;72.88281;940.6359;;;;
2019/09/07 14:19:34;;;;;;;3.1;1.6;;;;;;;16.8;71.45605;940.6484;;;;
2019/09/07 14:22:31;;;;;;;3.5;1.8;;;;;;;16.98;72.0293;940.6105;;;;
2019/09/07 14:25:11;;;;;;;2.9;1.5;;;;;;;17.15;69.86719;940.5798;;;;
2019/09/07 14:27:40;;;;;;;3.6;1.5;;;;;;;17.23;66.5752;940.5212;;;;
2019/09/07 14:30:06;;;;;;;2.3;1.3;;;;;;;17.36;68.06738;940.5751;;;;
2019/09/07 14:33:34;;;;;;;4.3;1.9;;;;;;;17.46;71.04102;940.5458;;;;
2019/09/07 14:35:02;;;;;;;3.4;1.6;;;;;;;17.38;71.60742;940.6006;;;;
2019/09/07 14:37:26;;;;;;;3.9;1.7;;;;;;;17.11;72.77051;940.5826;;;;
2019/09/07 14:39:59;;;;;;;4.2;1.4;;;;;;;16.8;71.44434;940.5479;;;;
2019/09/07 14:42:27;;;;;;;2.6;1.5;;;;;;;16.65;74.03613;940.5427;;;;
2019/09/07 14:44:53;;;;;;;3.4;1.3;;;;;;;16.54;72.66309;940.4695;;;;
2019/09/07 14:47:20;;;;;;;2.4;1.5;;;;;;;16.45;72.3125;940.4825;;;;
2019/09/07 14:49:47;;;;;;;3.2;1.5;;;;;;;16.75;72.85938;940.4832;;;;
2019/09/07 14:52:15;;;;;;;6.3;2.1;;;;;;;16.49;72.60938;940.45;;;;
2019/09/07 14:54:56;;;;;;;3.6;1.8;;;;;;;16.6;72.33789;940.4649;;;;
2019/09/07 14:57:20;;;;;;;3;1.8;;;;;;;16.71;72.45996;940.4564;;;;
2019/09/07 14:59:52;;;;;;;3.3;1.3;;;;;;;16.44;68.66504;940.403;;;;
2019/09/07 15:02:25;;;;;;;3.4;1.4;;;;;;;16.11;72.61621;940.4391;;;;
2019/09/07 15:05:00;;;;;;;3.2;1.6;;;;;;;16.45;76.33887;940.3901;;;;
2019/09/07 15:07:35;;;;;;;2;1.3;;;;;;;16.39;69.30664;940.3709;;;;
2019/09/07 15:09:55;;;;;;;3.2;1.2;;;;;;;16.48;71.34668;940.368;;;;
2019/09/07 15:12:22;;;;;;;2.1;1.2;;;;;;;16.28;66.7207;940.3439;;;;
2019/09/07 15:14:59;;;;;;;4.6;1.7;;;;;;;16.63;72.68945;940.2463;;;;
2019/09/07 15:17:27;;;;;;;2.7;1.8;;;;;;;17.01;69.04395;940.2892;;;;
2019/09/07 15:19:58;;;;;;;3;1.6;;;;;;;16.92;67.27051;940.2178;;;;
2019/09/07 15:22:31;;;;;;;1.9;1.3;;;;;;;16.67;68.62109;940.152;;;;
2019/09/07 15:25:06;;;;;;;2.6;1.2;;;;;;;16.83;71.05469;940.1948;;;;
2019/09/07 15:27:44;;;;;;;2.6;1.3;;;;;;;16.39;66.41309;940.0994;;;;
2019/09/07 15:30:09;;;;;;;1.7;1;;;;;;;16.38;67.91504;940.1325;;;;
2019/09/07 15:32:36;;;;;;;2.6;1.4;;;;;;;16.24;67.79004;940.1755;;;;
2019/09/07 15:35:08;;;;;;;2.9;1.2;;;;;;;16.31;66.49219;940.1863;;;;
2019/09/07 15:37:34;;;;;;;2.6;1.2;;;;;;;16.33;69.75879;940.2133;;;;
2019/09/07 15:40:10;;;;;;;3.1;1.3;;;;;;;16.36;69.05762;940.1038;;;;
2019/09/07 15:42:48;;;;;;;3.8;1.5;;;;;;;16.33;70.45313;940.1322;;;;
2019/09/07 15:45:39;;;;;;;2.7;1.5;;;;;;;16.38;70.54199;940.1598;;;;
2019/09/07 15:47:51;;;;;;;2.8;1.5;;;;;;;16.3;71.65234;940.1967;;;;
2019/09/07 15:50:15;;;;;;;2.3;1.6;;;;;;;16.2;70.27148;940.2575;;;;
2019/09/07 15:52:44;;;;;;;4;2.1;;;;;;;16.03;69.39941;940.231;;;;
2019/09/07 15:55:11;;;;;;;4.1;1.9;;;;;;;15.84;69.3584;940.2707;;;;
2019/09/07 15:57:51;;;;;;;5.1;2.1;;;;;;;15.83;74.03711;940.2491;;;;
2019/09/07 16:00:14;;;;;;;1.7;1.4;;;;;;;15.63;70.8252;940.2977;;;;